createdAt,value
2023-04-18T00:00:13.083Z,96823.00
2023-04-18T00:02:39.455Z,96828.13
2023-04-18T00:05:05.791Z,96820.03
2023-04-18T00:07:32.077Z,96819.59
2023-04-18T00:09:58.356Z,96820.59
2023-04-18T00:12:24.621Z,96815.03
2023-04-18T00:14:50.915Z,96819.13
2023-04-18T00:17:17.169Z,96815.00
2023-04-18T00:19:43.471Z,96809.34
2023-04-18T00:22:09.760Z,96809.09
2023-04-18T00:24:36.048Z,96803.44
2023-04-18T00:27:02.348Z,96801.31
2023-04-18T00:29:28.609Z,96795.66
2023-04-18T00:31:54.891Z,96802.38
2023-04-18T00:34:21.173Z,96799.22
2023-04-18T00:36:47.418Z,96793.78
2023-04-18T00:39:13.669Z,96784.41
2023-04-18T00:41:39.925Z,96791.59
2023-04-18T00:44:06.244Z,96795.31
2023-04-18T00:46:32.659Z,96793.53
2023-04-18T00:48:58.953Z,96792.75
2023-04-18T00:51:25.202Z,96794.59
2023-04-18T00:53:51.472Z,96800.50
2023-04-18T00:56:17.793Z,96798.66
2023-04-18T00:58:44.059Z,96790.63
2023-04-18T01:01:10.334Z,96793.78
2023-04-18T01:03:36.749Z,96789.56
2023-04-18T01:06:03.110Z,96786.81
2023-04-18T01:08:29.377Z,96788.75
2023-04-18T01:10:55.632Z,96790.88
2023-04-18T01:13:21.873Z,96798.72
2023-04-18T01:15:48.127Z,96784.31
2023-04-18T01:18:14.439Z,96790.47
2023-04-18T01:20:40.710Z,96784.78
2023-04-18T01:23:06.970Z,96785.94
2023-04-18T01:25:33.226Z,96793.13
2023-04-18T01:27:59.509Z,96787.47
2023-04-18T01:30:25.782Z,96796.28
2023-04-18T01:32:52.076Z,96802.13
2023-04-18T01:35:18.379Z,96795.16
2023-04-18T01:37:44.650Z,96782.84
2023-04-18T01:40:10.945Z,96782.44
2023-04-18T01:42:37.186Z,96785.13
2023-04-18T01:45:03.471Z,96789.16
2023-04-18T01:47:29.782Z,96788.44
2023-04-18T01:49:56.044Z,96785.22
2023-04-18T01:52:22.302Z,96786.81
2023-04-18T01:54:48.564Z,96777.84
2023-04-18T01:57:14.803Z,96772.25
2023-04-18T01:59:41.049Z,96783.19
2023-04-18T02:02:07.367Z,96784.78
2023-04-18T02:04:33.681Z,96789.56
2023-04-18T02:06:59.962Z,96792.75
2023-04-18T02:09:26.245Z,96791.75
2023-04-18T02:11:52.512Z,96791.28
2023-04-18T02:14:18.760Z,96792.91
2023-04-18T02:16:45.048Z,96799.38
2023-04-18T02:19:11.365Z,96803.66
2023-04-18T02:21:37.629Z,96804.56
2023-04-18T02:24:03.914Z,96803.50
2023-04-18T02:26:30.158Z,96805.13
2023-04-18T02:28:56.410Z,96810.47
2023-04-18T02:31:22.735Z,96806.75
2023-04-18T02:33:49.020Z,96811.75
2023-04-18T02:36:15.294Z,96807.97
2023-04-18T02:38:41.608Z,96801.47
2023-04-18T02:41:07.883Z,96800.44
2023-04-18T02:43:34.173Z,96799.63
2023-04-18T02:46:00.520Z,96796.38
2023-04-18T02:48:26.838Z,96801.81
2023-04-18T02:50:53.201Z,96797.34
2023-04-18T02:53:19.446Z,96806.75
2023-04-18T02:55:45.726Z,96802.53
2023-04-18T02:58:11.984Z,96810.84
2023-04-18T03:00:38.246Z,96809.00
2023-04-18T03:03:04.624Z,96805.84
2023-04-18T03:05:30.937Z,96808.25
2023-04-18T03:07:57.196Z,96810.69
2023-04-18T03:10:23.466Z,96806.19
2023-04-18T03:12:49.722Z,96807.28
2023-04-18T03:15:15.959Z,96803.00
2023-04-18T03:17:42.239Z,96803.81
2023-04-18T03:20:08.481Z,96801.38
2023-04-18T03:22:34.789Z,96806.47
2023-04-18T03:25:01.046Z,96799.50
2023-04-18T03:27:27.301Z,96807.28
2023-04-18T03:29:53.556Z,96803.00
2023-04-18T03:32:19.845Z,96804.34
2023-04-18T03:34:46.098Z,96803.00
2023-04-18T03:37:12.344Z,96801.94
2023-04-18T03:39:38.624Z,96804.03
2023-04-18T03:42:04.879Z,96803.22
2023-04-18T03:44:31.129Z,96803.81
2023-04-18T03:46:57.421Z,96800.31
2023-04-18T03:49:23.680Z,96807.78
2023-04-18T03:51:49.933Z,96798.38
2023-04-18T03:54:16.432Z,96801.06
2023-04-18T03:56:42.869Z,96800.00
2023-04-18T03:59:09.137Z,96802.19
2023-04-18T04:01:35.414Z,96803.16
2023-04-18T04:04:01.897Z,96801.31
2023-04-18T04:06:28.261Z,96797.81
2023-04-18T04:08:54.536Z,96798.88
2023-04-18T04:11:20.790Z,96801.78
2023-04-18T04:13:47.045Z,96799.94
2023-04-18T04:16:13.303Z,96799.13
2023-04-18T04:18:39.638Z,96806.56
2023-04-18T04:21:05.933Z,96800.41
2023-04-18T04:23:32.189Z,96808.50
2023-04-18T04:25:58.449Z,96802.91
2023-04-18T04:28:24.696Z,96812.00
2023-04-18T04:30:50.957Z,96816.53
2023-04-18T04:33:17.702Z,96817.09
2023-04-18T04:35:43.979Z,96815.47
2023-04-18T04:38:10.232Z,96816.44
2023-04-18T04:40:36.492Z,96817.59
2023-04-18T04:43:02.763Z,96811.19
2023-04-18T04:45:29.035Z,96821.63
2023-04-18T04:47:55.355Z,96818.38
2023-04-18T04:50:21.631Z,96819.44
2023-04-18T04:52:47.904Z,96817.59
2023-04-18T04:55:14.198Z,96821.56
2023-04-18T04:57:40.484Z,96820.50
2023-04-18T05:00:06.737Z,96818.63
2023-04-18T05:02:33.111Z,96822.34
2023-04-18T05:04:59.419Z,96823.41
2023-04-18T05:07:25.674Z,96819.94
2023-04-18T05:09:51.921Z,96823.09
2023-04-18T05:12:18.182Z,96818.81
2023-04-18T05:14:44.435Z,96823.81
2023-04-18T05:17:10.726Z,96821.63
2023-04-18T05:19:37.008Z,96821.63
2023-04-18T05:22:03.290Z,96824.78
2023-04-18T05:24:29.555Z,96821.88
2023-04-18T05:26:55.798Z,96821.31
2023-04-18T05:29:22.045Z,96827.72
2023-04-18T05:31:48.301Z,96827.06
2023-04-18T05:34:14.673Z,96831.47
2023-04-18T05:36:41.075Z,96830.44
2023-04-18T05:39:07.333Z,96832.78
2023-04-18T05:41:33.578Z,96832.94
2023-04-18T05:44:05.476Z,96832.44
2023-04-18T05:46:32.268Z,96832.44
2023-04-18T05:48:58.559Z,96838.38
2023-04-18T05:51:24.827Z,96842.16
2023-04-18T05:53:51.099Z,96837.41
2023-04-18T05:56:17.369Z,96839.38
2023-04-18T05:58:43.743Z,96834.69
2023-04-18T06:01:10.064Z,96843.25
2023-04-18T06:03:36.535Z,96842.78
2023-04-18T06:06:03.104Z,96842.28
2023-04-18T06:08:29.441Z,96839.53
2023-04-18T06:10:55.740Z,96853.28
2023-04-18T06:13:22.041Z,96846.91
2023-04-18T06:15:48.448Z,96849.66
2023-04-18T06:18:14.755Z,96854.44
2023-04-18T06:20:41.010Z,96853.38
2023-04-18T06:23:07.275Z,96859.03
2023-04-18T06:25:33.561Z,96858.31
2023-04-18T06:27:59.830Z,96860.75
2023-04-18T06:30:26.102Z,96859.16
2023-04-18T06:32:52.465Z,96862.97
2023-04-18T06:35:18.863Z,96864.34
2023-04-18T06:37:45.152Z,96867.66
2023-04-18T06:40:11.427Z,96863.69
2023-04-18T06:42:37.742Z,96868.28
2023-04-18T06:45:04.038Z,96869.19
2023-04-18T06:47:30.426Z,96867.94
2023-04-18T06:49:56.773Z,96865.59
2023-04-18T06:52:23.045Z,96870.13
2023-04-18T06:54:49.350Z,96866.72
2023-04-18T06:57:15.642Z,96872.06
2023-04-18T06:59:41.911Z,96866.41
2023-04-18T07:02:08.235Z,96864.34
2023-04-18T07:04:34.623Z,96868.66
2023-04-18T07:07:00.932Z,96859.50
2023-04-18T07:09:27.202Z,96861.16
2023-04-18T07:11:53.466Z,96859.88
2023-04-18T07:14:19.710Z,96865.88
2023-04-18T07:16:45.994Z,96867.66
2023-04-18T07:19:12.282Z,96874.56
2023-04-18T07:21:38.548Z,96864.09
2023-04-18T07:24:04.832Z,96856.97
2023-04-18T07:26:31.098Z,96860.44
2023-04-18T07:28:57.351Z,96858.59
2023-04-18T07:31:23.655Z,96863.13
2023-04-18T07:33:49.941Z,96856.38
2023-04-18T07:36:16.186Z,96852.44
2023-04-18T07:38:42.435Z,96852.06
2023-04-18T07:41:08.710Z,96853.34
2023-04-18T07:43:34.987Z,96845.63
2023-04-18T07:46:01.362Z,96852.28
2023-04-18T07:48:27.664Z,96850.50
2023-04-18T07:50:53.929Z,96846.66
2023-04-18T07:53:20.197Z,96851.72
2023-04-18T07:55:46.450Z,96844.94
2023-04-18T07:58:12.708Z,96849.31
2023-04-18T08:00:39.025Z,96838.78
2023-04-18T08:03:05.492Z,96845.56
2023-04-18T08:05:31.853Z,96844.31
2023-04-18T08:07:58.132Z,96837.72
2023-04-18T08:10:24.475Z,96837.78
2023-04-18T08:12:50.753Z,96838.91
2023-04-18T08:15:17.009Z,96831.72
2023-04-18T08:17:43.329Z,96833.09
2023-04-18T08:20:09.607Z,96840.31
2023-04-18T08:22:44.077Z,96833.41
2023-04-18T08:25:16.667Z,96832.44
2023-04-18T08:27:42.931Z,96831.22
2023-04-18T08:30:09.258Z,96825.34
2023-04-18T08:32:35.578Z,96831.81
2023-04-18T08:35:01.922Z,96832.16
2023-04-18T08:37:28.185Z,96830.63
2023-04-18T08:39:54.492Z,96828.88
2023-04-18T08:42:20.772Z,96835.88
2023-04-18T08:44:47.063Z,96825.38
2023-04-18T08:47:13.316Z,96827.34
2023-04-18T08:49:39.575Z,96829.84
2023-04-18T08:52:05.925Z,96834.66
2023-04-18T08:54:32.208Z,96830.94
2023-04-18T08:56:58.470Z,96831.19
2023-04-18T08:59:24.745Z,96824.19
2023-04-18T09:01:51.113Z,96827.13
2023-04-18T09:04:17.439Z,96824.41
2023-04-18T09:06:43.757Z,96831.63
2023-04-18T09:09:10.051Z,96833.31
2023-04-18T09:11:36.290Z,96826.41
2023-04-18T09:14:02.731Z,96819.44
2023-04-18T09:16:29.069Z,96820.81
2023-04-18T09:18:55.363Z,96823.25
2023-04-18T09:21:21.628Z,96819.53
2023-04-18T09:23:47.946Z,96825.16
2023-04-18T09:26:14.273Z,96832.41
2023-04-18T09:28:40.534Z,96831.06
2023-04-18T09:31:06.872Z,96828.09
2023-04-18T09:33:33.215Z,96824.13
2023-04-18T09:35:59.537Z,96828.97
2023-04-18T09:38:25.789Z,96831.09
2023-04-18T09:40:52.062Z,96824.06
2023-04-18T09:43:18.311Z,96825.44
2023-04-18T09:45:44.590Z,96827.09
2023-04-18T09:48:10.909Z,96831.44
2023-04-18T09:50:37.386Z,96833.84
2023-04-18T09:53:03.665Z,96831.94
2023-04-18T09:55:29.937Z,96833.03
2023-04-18T09:57:56.235Z,96828.47
2023-04-18T10:00:22.478Z,96837.06
2023-04-18T10:02:48.860Z,96834.63
2023-04-18T10:05:15.251Z,96835.19
2023-04-18T10:07:41.549Z,96825.03
2023-04-18T10:10:07.805Z,96828.78
2023-04-18T10:12:34.097Z,96823.97
2023-04-18T10:15:00.377Z,96827.56
2023-04-18T10:17:28.099Z,96827.09
2023-04-18T10:19:55.671Z,96823.81
2023-04-18T10:22:21.953Z,96826.75
2023-04-18T10:24:48.223Z,96819.59
2023-04-18T10:27:14.517Z,96824.13
2023-04-18T10:29:40.781Z,96812.63
2023-04-18T10:32:07.046Z,96818.44
2023-04-18T10:34:33.306Z,96812.63
2023-04-18T10:36:59.549Z,96812.97
2023-04-18T10:39:25.813Z,96811.09
2023-04-18T10:41:52.072Z,96805.47
2023-04-18T10:44:18.480Z,96810.31
2023-04-18T10:46:44.845Z,96806.84
2023-04-18T10:49:11.273Z,96803.66
2023-04-18T10:51:37.621Z,96793.22
2023-04-18T10:54:03.890Z,96792.16
2023-04-18T10:56:30.177Z,96784.88
2023-04-18T10:58:56.456Z,96795.91
2023-04-18T11:01:22.742Z,96784.63
2023-04-18T11:03:49.150Z,96784.59
2023-04-18T11:06:15.488Z,96782.97
2023-04-18T11:08:42.135Z,96784.38
2023-04-18T11:11:08.420Z,96771.19
2023-04-18T11:13:34.713Z,96778.38
2023-04-18T11:16:01.006Z,96773.63
2023-04-18T11:18:27.325Z,96767.97
2023-04-18T11:20:53.587Z,96773.38
2023-04-18T11:23:19.830Z,96769.59
2023-04-18T11:25:46.147Z,96761.28
2023-04-18T11:28:12.423Z,96761.28
2023-04-18T11:30:38.723Z,96765.03
2023-04-18T11:33:05.053Z,96766.66
2023-04-18T11:35:31.332Z,96760.72
2023-04-18T11:37:57.593Z,96758.28
2023-04-18T11:40:23.876Z,96759.63
2023-04-18T11:42:50.176Z,96764.47
2023-04-18T11:45:16.476Z,96758.50
2023-04-18T11:47:42.883Z,96762.25
2023-04-18T11:50:09.270Z,96750.38
2023-04-18T11:52:35.547Z,96747.34
2023-04-18T11:55:01.806Z,96740.06
2023-04-18T11:57:28.128Z,96747.06
2023-04-18T11:59:54.380Z,96744.63
2023-04-18T12:02:20.822Z,96752.63
2023-04-18T12:04:47.361Z,96751.59
2023-04-18T12:07:13.789Z,96750.53
2023-04-18T12:09:40.085Z,96747.81
2023-04-18T12:12:06.375Z,96750.53
2023-04-18T12:14:32.682Z,96753.97
2023-04-18T12:16:58.961Z,96751.34
2023-04-18T12:19:25.249Z,96742.66
2023-04-18T12:21:51.540Z,96746.34
2023-04-18T12:24:17.813Z,96746.31
2023-04-18T12:26:44.104Z,96742.44
2023-04-18T12:29:10.366Z,96743.56
2023-04-18T12:31:36.699Z,96741.00
2023-04-18T12:34:02.992Z,96744.84
2023-04-18T12:36:29.253Z,96745.00
2023-04-18T12:38:55.530Z,96736.28
2023-04-18T12:41:21.815Z,96740.06
2023-04-18T12:43:48.089Z,96737.75
2023-04-18T12:46:14.365Z,96742.03
2023-04-18T12:48:40.699Z,96735.34
2023-04-18T12:51:06.963Z,96740.38
2023-04-18T12:53:33.247Z,96735.81
2023-04-18T12:55:59.505Z,96741.25
2023-04-18T12:58:25.829Z,96738.03
2023-04-18T13:00:52.148Z,96734.72
2023-04-18T13:03:18.578Z,96734.09
2023-04-18T13:05:44.903Z,96720.78
2023-04-18T13:08:17.218Z,96727.84
2023-04-18T13:10:44.373Z,96727.63
2023-04-18T13:13:10.697Z,96731.81
2023-04-18T13:15:38.802Z,96734.66
2023-04-18T13:18:06.540Z,96739.41
2023-04-18T13:20:33.113Z,96733.22
2023-04-18T13:22:59.432Z,96733.88
2023-04-18T13:25:25.767Z,96733.13
2023-04-18T13:27:52.042Z,96736.56
2023-04-18T13:30:18.297Z,96736.50
2023-04-18T13:32:44.631Z,96722.03
2023-04-18T13:35:10.942Z,96720.41
2023-04-18T13:37:37.589Z,96725.19
2023-04-18T13:40:03.972Z,96719.72
2023-04-18T13:42:30.252Z,96710.78
2023-04-18T13:44:56.506Z,96718.78
2023-04-18T13:47:22.811Z,96709.97
2023-04-18T13:49:49.083Z,96709.28
2023-04-18T13:52:15.366Z,96701.03
2023-04-18T13:54:41.664Z,96712.81
2023-04-18T13:57:07.948Z,96707.56
2023-04-18T13:59:34.221Z,96707.38
2023-04-18T14:02:00.689Z,96703.78
2023-04-18T14:04:27.398Z,96696.16
2023-04-18T14:06:53.906Z,96704.59
2023-04-18T14:09:20.185Z,96702.19
2023-04-18T14:11:46.543Z,96701.22
2023-04-18T14:14:12.821Z,96696.81
2023-04-18T14:16:39.476Z,96691.06
2023-04-18T14:19:05.838Z,96695.09
2023-04-18T14:21:32.184Z,96692.03
2023-04-18T14:23:58.484Z,96696.25
2023-04-18T14:26:24.797Z,96698.34
2023-04-18T14:28:51.211Z,96697.44
2023-04-18T14:31:17.551Z,96689.56
2023-04-18T14:33:43.818Z,96693.78
2023-04-18T14:36:10.075Z,96685.47
2023-04-18T14:38:36.335Z,96691.03
2023-04-18T14:41:02.600Z,96696.19
2023-04-18T14:43:28.868Z,96697.41
2023-04-18T14:45:55.137Z,96698.53
2023-04-18T14:48:21.518Z,96693.44
2023-04-18T14:50:47.821Z,96697.47
2023-04-18T14:53:14.125Z,96700.25
2023-04-18T14:55:40.408Z,96694.50
2023-04-18T14:58:07.670Z,96687.31
2023-04-18T15:00:33.936Z,96692.19
2023-04-18T15:03:00.325Z,96702.88
2023-04-18T15:05:26.678Z,96688.69
2023-04-18T15:07:52.948Z,96701.75
2023-04-18T15:10:19.243Z,96692.13
2023-04-18T15:12:45.557Z,96693.63
2023-04-18T15:15:11.809Z,96692.66
2023-04-18T15:17:38.115Z,96688.19
2023-04-18T15:20:04.440Z,96691.06
2023-04-18T15:22:30.736Z,96687.41
2023-04-18T15:24:57.019Z,96690.66
2023-04-18T15:27:23.332Z,96695.97
2023-04-18T15:29:49.639Z,96687.78
2023-04-18T15:32:15.988Z,96690.66
2023-04-18T15:34:42.296Z,96690.03
2023-04-18T15:37:08.556Z,96693.41
2023-04-18T15:39:34.818Z,96692.56
2023-04-18T15:42:01.177Z,96699.63
2023-04-18T15:44:27.449Z,96699.47
2023-04-18T15:46:53.734Z,96704.72
2023-04-18T15:49:20.031Z,96708.34
2023-04-18T15:51:46.301Z,96704.34
2023-04-18T15:54:12.943Z,96705.59
2023-04-18T15:56:39.408Z,96705.38
2023-04-18T15:59:05.672Z,96697.53
2023-04-18T16:01:31.998Z,96688.28
2023-04-18T16:03:58.398Z,96701.25
2023-04-18T16:06:24.732Z,96707.28
2023-04-18T16:08:51.009Z,96699.06
2023-04-18T16:11:17.255Z,96692.16
2023-04-18T16:13:43.551Z,96715.56
2023-04-18T16:16:09.847Z,96700.25
2023-04-18T16:18:36.162Z,96701.63
2023-04-18T16:21:02.477Z,96707.06
2023-04-18T16:23:28.754Z,96703.75
2023-04-18T16:25:55.011Z,96705.34
2023-04-18T16:28:21.337Z,96713.03
2023-04-18T16:30:47.617Z,96709.91
2023-04-18T16:33:14.037Z,96713.88
2023-04-18T16:35:40.431Z,96710.22
2023-04-18T16:38:06.726Z,96714.91
2023-04-18T16:40:33.019Z,96710.31
2023-04-18T16:42:59.296Z,96708.66
2023-04-18T16:45:25.570Z,96719.75
2023-04-18T16:47:51.933Z,96720.31
2023-04-18T16:50:18.254Z,96723.38
2023-04-18T16:52:44.525Z,96722.31
2023-04-18T16:55:10.804Z,96725.28
2023-04-18T16:57:37.068Z,96726.44
2023-04-18T17:00:03.355Z,96716.06
2023-04-18T17:02:29.978Z,96725.88
2023-04-18T17:04:56.526Z,96725.59
2023-04-18T17:07:22.969Z,96724.25
2023-04-18T17:09:49.273Z,96722.03
2023-04-18T17:12:15.618Z,96720.97
2023-04-18T17:14:41.924Z,96720.44
2023-04-18T17:17:08.223Z,96728.16
2023-04-18T17:19:34.573Z,96723.09
2023-04-18T17:22:00.888Z,96725.88
2023-04-18T17:24:27.187Z,96741.56
2023-04-18T17:26:53.594Z,96743.66
2023-04-18T17:29:19.895Z,96738.50
2023-04-18T17:31:46.209Z,96749.06
2023-04-18T17:34:12.471Z,96734.88
2023-04-18T17:36:38.742Z,96745.41
2023-04-18T17:39:05.041Z,96744.91
2023-04-18T17:41:31.431Z,96754.25
2023-04-18T17:43:57.682Z,96747.69
2023-04-18T17:46:24.011Z,96751.88
2023-04-18T17:48:50.336Z,96759.94
2023-04-18T17:51:16.663Z,96761.31
2023-04-18T17:53:42.960Z,96765.50
2023-04-18T17:56:09.276Z,96761.13
2023-04-18T17:58:35.549Z,96771.91
2023-04-18T18:01:01.856Z,96770.63
2023-04-18T18:03:28.290Z,96776.34
2023-04-18T18:05:54.918Z,96779.47
2023-04-18T18:08:21.306Z,96782.41
2023-04-18T18:10:47.613Z,96783.69
2023-04-18T18:13:13.953Z,96779.38
2023-04-18T18:15:40.248Z,96788.50
2023-04-18T18:18:06.589Z,96781.69
2023-04-18T18:20:32.968Z,96779.72
2023-04-18T18:22:59.264Z,96774.78
2023-04-18T18:25:25.592Z,96794.25
2023-04-18T18:27:51.856Z,96784.03
2023-04-18T18:30:18.225Z,96793.69
2023-04-18T18:32:44.506Z,96790.53
2023-04-18T18:35:10.812Z,96789.72
2023-04-18T18:37:37.126Z,96790.84
2023-04-18T18:40:03.439Z,96800.34
2023-04-18T18:42:29.699Z,96802.78
2023-04-18T18:44:55.959Z,96809.69
2023-04-18T18:47:22.405Z,96809.06
2023-04-18T18:49:48.760Z,96811.97
2023-04-18T18:52:15.025Z,96812.38
2023-04-18T18:54:41.287Z,96822.69
2023-04-18T18:57:07.577Z,96819.56
2023-04-18T18:59:33.835Z,96823.31
2023-04-18T19:02:00.204Z,96821.72
2023-04-18T19:04:26.659Z,96834.00
2023-04-18T19:06:52.972Z,96839.94
2023-04-18T19:09:19.269Z,96842.09
2023-04-18T19:11:45.563Z,96838.44
2023-04-18T19:14:11.820Z,96848.34
2023-04-18T19:16:38.121Z,96839.66
2023-04-18T19:19:04.472Z,96847.19
2023-04-18T19:21:30.747Z,96850.97
2023-04-18T19:23:57.032Z,96845.63
2023-04-18T19:26:23.301Z,96854.84
2023-04-18T19:28:49.601Z,96845.03
2023-04-18T19:31:15.903Z,96851.44
2023-04-18T19:33:42.200Z,96845.72
2023-04-18T19:36:08.518Z,96858.66
2023-04-18T19:38:34.789Z,96856.91
2023-04-18T19:41:01.135Z,96852.38
2023-04-18T19:43:27.398Z,96859.63
2023-04-18T19:45:55.292Z,96855.47
2023-04-18T19:48:21.756Z,96858.34
2023-04-18T19:50:48.059Z,96854.50
2023-04-18T19:53:14.507Z,96852.06
2023-04-18T19:55:40.895Z,96857.41
2023-04-18T19:58:07.159Z,96854.75
2023-04-18T20:00:33.446Z,96850.16
2023-04-18T20:02:59.889Z,96858.63
2023-04-18T20:05:26.385Z,96865.16
2023-04-18T20:07:52.692Z,96857.13
2023-04-18T20:10:18.970Z,96870.56
2023-04-18T20:12:45.213Z,96858.75
2023-04-18T20:15:11.470Z,96863.97
2023-04-18T20:17:37.751Z,96866.69
2023-04-18T20:20:04.107Z,96869.66
2023-04-18T20:22:30.383Z,96871.34
2023-04-18T20:24:56.641Z,96862.47
2023-04-18T20:27:22.914Z,96865.97
2023-04-18T20:29:49.203Z,96864.69
2023-04-18T20:32:15.548Z,96867.13
2023-04-18T20:34:41.885Z,96869.00
2023-04-18T20:37:08.155Z,96862.78
2023-04-18T20:39:34.524Z,96867.06
2023-04-18T20:42:00.821Z,96870.28
2023-04-18T20:44:27.095Z,96870.56
2023-04-18T20:46:53.397Z,96864.16
2023-04-18T20:49:19.673Z,96870.38
2023-04-18T20:51:46.025Z,96872.00
2023-04-18T20:54:12.714Z,96871.72
2023-04-18T20:56:39.145Z,96870.94
2023-04-18T20:59:05.422Z,96874.19
2023-04-18T21:01:31.692Z,96876.34
2023-04-18T21:03:58.072Z,96873.13
2023-04-18T21:06:24.513Z,96882.28
2023-04-18T21:08:50.798Z,96877.72
2023-04-18T21:11:18.081Z,96876.63
2023-04-18T21:13:44.348Z,96884.97
2023-04-18T21:16:10.733Z,96885.22
2023-04-18T21:18:37.144Z,96893.03
2023-04-18T21:21:03.446Z,96898.97
2023-04-18T21:23:29.723Z,96904.34
2023-04-18T21:25:55.989Z,96913.75
2023-04-18T21:28:22.258Z,96914.03
2023-04-18T21:30:48.529Z,96923.97
2023-04-18T21:33:14.795Z,96923.16
2023-04-18T21:35:41.068Z,96928.56
2023-04-18T21:38:07.332Z,96935.81
2023-04-18T21:40:33.578Z,96935.56
2023-04-18T21:42:59.830Z,96940.38
2023-04-18T21:45:26.138Z,96946.84
2023-04-18T21:47:52.487Z,96942.22
2023-04-18T21:50:18.793Z,96947.84
2023-04-18T21:52:45.069Z,96946.72
2023-04-18T21:55:11.342Z,96950.72
2023-04-18T21:57:37.588Z,96952.63
2023-04-18T22:00:03.864Z,96951.25
2023-04-18T22:02:30.248Z,96963.06
2023-04-18T22:04:56.645Z,96958.75
2023-04-18T22:07:22.907Z,96959.03
2023-04-18T22:09:49.185Z,96954.72
2023-04-18T22:12:15.465Z,96954.69
2023-04-18T22:14:41.737Z,96959.75
2023-04-18T22:17:07.986Z,96956.25
2023-04-18T22:19:34.233Z,96965.91
2023-04-18T22:22:00.487Z,96966.91
2023-04-18T22:24:26.737Z,96970.53
2023-04-18T22:26:53.010Z,96974.75
2023-04-18T22:29:19.300Z,96970.16
2023-04-18T22:31:45.542Z,96969.53
2023-04-18T22:34:11.812Z,96976.25
2023-04-18T22:36:38.107Z,96978.66
2023-04-18T22:39:04.407Z,96972.84
2023-04-18T22:41:30.673Z,96980.38
2023-04-18T22:43:56.966Z,96984.16
2023-04-18T22:46:23.256Z,96980.13
2023-04-18T22:48:49.553Z,96982.53
2023-04-18T22:51:15.854Z,96986.47
2023-04-18T22:53:42.094Z,96985.81
2023-04-18T22:56:08.357Z,96997.19
2023-04-18T22:58:34.616Z,96991.56
2023-04-18T23:01:00.900Z,96998.03
2023-04-18T23:03:27.349Z,97003.63
2023-04-18T23:05:53.744Z,96992.03
2023-04-18T23:08:20.006Z,97001.59
2023-04-18T23:10:46.265Z,96998.16
2023-04-18T23:13:12.521Z,97000.84
2023-04-18T23:15:38.820Z,97005.28
2023-04-18T23:18:05.124Z,97003.16
2023-04-18T23:20:31.419Z,97003.22
2023-04-18T23:22:57.686Z,97008.06
2023-04-18T23:25:23.962Z,97001.19
2023-04-18T23:27:50.226Z,97003.81
2023-04-18T23:30:16.537Z,97006.75
2023-04-18T23:32:42.854Z,97010.81
2023-04-18T23:35:09.167Z,97016.78
2023-04-18T23:37:35.521Z,97017.59
2023-04-18T23:40:01.876Z,97014.09
2023-04-18T23:42:28.160Z,97010.13
2023-04-18T23:44:54.441Z,97018.47
2023-04-18T23:47:20.858Z,97013.13
2023-04-18T23:49:47.194Z,97013.31
2023-04-18T23:52:13.442Z,97014.09
2023-04-18T23:54:39.810Z,97014.81
2023-04-18T23:57:06.095Z,97016.13
2023-04-18T23:59:32.343Z,97016.94
